Time;durP1;ratioP1;P1;durP2;ratioP2;P2;SDS_P1;SDS_P2;PMS_P1;PMS_P2;Temp;Humidity;BMP_temperature;BMP_pressure;BME280_temperature;BME280_humidity;BME280_pressure;Samples;Min_cycle;Max_cycle;Signal;HPM_P1;HPM_P2
2022/01/07 00:01:37;;;;;;;13.23;5.57;;;4.40;99.90;;;;;;5069182;28;20052;-68
2022/01/07 00:04:03;;;;;;;13.40;5.93;;;4.40;99.90;;;;;;5052745;28;20115;-68
2022/01/07 00:06:29;;;;;;;19.42;5.88;;;4.20;99.90;;;;;;5052886;28;20401;-68
2022/01/07 00:08:55;;;;;;;10.73;5.63;;;4.40;99.90;;;;;;5069157;28;20040;-69
2022/01/07 00:11:21;;;;;;;15.00;5.75;;;4.40;99.90;;;;;;5063066;28;20527;-68
2022/01/07 00:13:47;;;;;;;20.52;5.65;;;4.50;99.90;;;;;;5064961;28;20110;-68
2022/01/07 00:16:12;;;;;;;11.85;5.03;;;4.50;99.90;;;;;;5069391;28;20522;-68
2022/01/07 00:18:41;;;;;;;13.70;5.75;;;4.50;99.90;;;;;;5052819;28;20052;-68
2022/01/07 00:21:07;;;;;;;13.05;5.53;;;4.50;99.90;;;;;;5070103;28;20056;-68
2022/01/07 00:23:33;;;;;;;17.10;6.38;;;4.50;99.90;;;;;;5070275;28;20044;-68
2022/01/07 00:25:59;;;;;;;12.93;5.50;;;4.50;99.90;;;;;;5069116;28;20056;-69
2022/01/07 00:28:24;;;;;;;17.52;5.53;;;4.50;99.90;;;;;;5069934;28;20040;-68
2022/01/07 00:30:50;;;;;;;11.68;6.00;;;4.40;99.90;;;;;;5069817;28;20056;-68
2022/01/07 00:33:16;;;;;;;12.52;5.50;;;4.40;99.90;;;;;;5069650;28;20094;-68
2022/01/07 00:35:42;;;;;;;16.98;6.10;;;4.30;99.90;;;;;;5051891;28;20437;-69
2022/01/07 00:38:07;;;;;;;13.40;4.97;;;4.30;99.90;;;;;;5053016;28;20056;-68
2022/01/07 00:40:33;;;;;;;16.85;5.68;;;4.30;99.90;;;;;;5070634;28;20219;-68
2022/01/07 00:42:59;;;;;;;13.68;5.30;;;4.30;99.90;;;;;;5068475;28;20492;-68
2022/01/07 00:45:25;;;;;;;15.43;5.70;;;4.30;99.90;;;;;;5054064;28;20118;-68
2022/01/07 00:47:53;;;;;;;15.40;5.90;;;4.20;99.90;;;;;;5051432;28;20048;-68
2022/01/07 00:50:21;;;;;;;13.40;5.65;;;4.10;99.90;;;;;;5051282;28;20064;-69
2022/01/07 00:52:47;;;;;;;10.45;5.00;;;4.00;99.90;;;;;;5069876;28;20098;-68
2022/01/07 00:55:13;;;;;;;14.32;6.20;;;3.90;99.90;;;;;;5051804;28;20052;-69
2022/01/07 00:57:40;;;;;;;15.73;6.30;;;3.80;99.90;;;;;;5066535;28;20045;-69
2022/01/07 01:00:09;;;;;;;15.57;6.05;;;3.70;99.90;;;;;;5069919;28;20059;-69
2022/01/07 01:02:35;;;;;;;11.43;5.80;;;3.70;99.90;;;;;;5068534;28;20451;-69
2022/01/07 01:05:02;;;;;;;13.93;5.93;;;3.60;99.90;;;;;;5070664;28;20485;-69
2022/01/07 01:07:29;;;;;;;13.73;5.20;;;3.60;99.90;;;;;;5051511;28;20044;-68
2022/01/07 01:09:54;;;;;;;11.52;6.72;;;3.60;99.90;;;;;;5051640;28;20064;-69
2022/01/07 01:12:20;;;;;;;14.32;6.15;;;3.50;99.90;;;;;;5067870;28;20126;-69
2022/01/07 01:14:46;;;;;;;13.60;6.22;;;3.50;99.90;;;;;;5069757;28;20049;-69
2022/01/07 01:17:11;;;;;;;12.57;5.82;;;3.50;99.90;;;;;;5068475;28;20053;-69
2022/01/07 01:19:37;;;;;;;15.18;6.63;;;3.40;99.90;;;;;;5050473;28;20056;-68
2022/01/07 01:22:04;;;;;;;14.52;6.53;;;3.40;99.90;;;;;;5069236;28;20075;-69
2022/01/07 01:24:30;;;;;;;14.10;6.47;;;3.40;99.90;;;;;;5069015;28;20231;-69
2022/01/07 01:26:56;;;;;;;14.23;7.20;;;3.40;99.90;;;;;;5068953;28;20052;-69
2022/01/07 01:29:22;;;;;;;16.35;6.80;;;3.40;99.90;;;;;;5069154;28;20120;-70
2022/01/07 01:31:49;;;;;;;13.27;5.97;;;3.30;99.90;;;;;;5067081;28;20055;-69
2022/01/07 01:34:14;;;;;;;12.30;6.93;;;3.30;99.90;;;;;;5069228;28;20059;-69
2022/01/07 01:36:40;;;;;;;16.40;7.00;;;3.40;99.90;;;;;;5068275;28;20469;-68
2022/01/07 01:39:06;;;;;;;18.55;7.68;;;3.40;99.90;;;;;;5068773;28;20518;-68
2022/01/07 01:41:32;;;;;;;15.85;6.57;;;3.40;99.90;;;;;;5050440;28;20553;-68
2022/01/07 01:43:57;;;;;;;13.77;6.18;;;3.30;99.90;;;;;;5049626;28;20500;-69
2022/01/07 01:46:23;;;;;;;16.15;6.28;;;3.30;99.90;;;;;;5051338;28;20130;-68
2022/01/07 01:48:49;;;;;;;18.30;7.90;;;;;;;;;;5053861;28;20046;-68
2022/01/07 01:51:15;;;;;;;13.27;7.25;;;3.30;99.90;;;;;;5034170;28;20052;-68
2022/01/07 01:53:41;;;;;;;15.15;7.72;;;3.20;99.90;;;;;;5068201;28;20522;-69
2022/01/07 01:56:07;;;;;;;15.27;5.78;;;3.20;99.90;;;;;;5067530;28;20536;-68
2022/01/07 01:58:33;;;;;;;17.45;7.43;;;3.20;99.90;;;;;;5068717;28;20366;-69
2022/01/07 02:00:59;;;;;;;10.35;5.55;;;4.30;99.90;;;;;;5066767;28;20106;-69
2022/01/07 02:03:24;;;;;;;14.20;6.50;;;3.20;99.90;;;;;;5068264;28;20400;-69
2022/01/07 02:05:50;;;;;;;14.80;7.47;;;3.20;99.90;;;;;;5069084;28;20044;-69
2022/01/07 02:08:16;;;;;;;17.98;7.90;;;3.20;99.90;;;;;;5067354;28;20194;-69
2022/01/07 02:10:42;;;;;;;13.50;7.10;;;3.10;99.90;;;;;;5068083;28;20501;-69
2022/01/07 02:13:09;;;;;;;16.23;6.28;;;3.20;99.90;;;;;;5067728;28;20053;-69
2022/01/07 02:15:37;;;;;;;16.67;7.25;;;3.20;99.90;;;;;;5067974;28;20055;-69
2022/01/07 02:18:03;;;;;;;18.83;6.80;;;3.10;99.90;;;;;;5067906;28;20052;-69
2022/01/07 02:20:29;;;;;;;15.40;6.85;;;3.10;99.90;;;;;;5068325;28;20049;-69
2022/01/07 02:22:56;;;;;;;16.95;7.70;;;3.10;99.90;;;;;;5067465;28;20052;-69
2022/01/07 02:25:22;;;;;;;16.92;7.40;;;3.10;99.90;;;;;;5062255;28;20053;-69
2022/01/07 02:27:48;;;;;;;11.23;6.32;;;3.10;99.90;;;;;;5061910;28;20048;-70
2022/01/07 02:30:19;;;;;;;14.25;7.75;;;3.10;99.90;;;;;;5049655;28;20445;-69
2022/01/07 02:32:46;;;;;;;15.75;8.35;;;3.10;99.90;;;;;;5068101;28;20048;-69
2022/01/07 02:35:12;;;;;;;12.85;6.97;;;3.00;99.90;;;;;;5067006;28;20122;-69
2022/01/07 02:37:39;;;;;;;18.80;7.65;;;3.10;99.90;;;;;;5068479;28;20083;-69
2022/01/07 02:40:06;;;;;;;14.88;7.90;;;3.00;99.90;;;;;;5056866;28;20558;-69
2022/01/07 02:42:32;;;;;;;15.05;8.50;;;3.10;99.90;;;;;;5059900;28;20044;-69
2022/01/07 02:44:58;;;;;;;16.55;9.15;;;3.10;99.90;;;;;;5048396;28;20103;-69
2022/01/07 02:47:28;;;;;;;14.25;8.55;;;3.10;99.90;;;;;;5059456;28;20072;-69
2022/01/07 02:49:53;;;;;;;12.43;7.43;;;3.10;99.90;;;;;;5049488;28;20611;-70
2022/01/07 02:52:19;;;;;;;10.18;6.65;;;3.10;99.90;;;;;;5049291;28;20048;-70
2022/01/07 02:54:44;;;;;;;10.60;6.70;;;3.20;99.90;;;;;;5050261;28;20102;-69
2022/01/07 02:57:10;;;;;;;11.25;5.35;;;3.20;99.90;;;;;;5048826;28;20140;-69
2022/01/07 02:59:35;;;;;;;13.07;8.90;;;3.20;99.90;;;;;;5067578;28;20052;-69
2022/01/07 03:02:01;;;;;;;14.52;7.45;;;3.10;99.90;;;;;;5050337;28;20036;-69
2022/01/07 03:04:28;;;;;;;13.13;7.43;;;3.10;99.90;;;;;;5071491;28;20139;-69
2022/01/07 03:06:54;;;;;;;17.08;7.50;;;3.10;99.90;;;;;;5053657;28;20488;-69
2022/01/07 03:09:20;;;;;;;12.70;8.07;;;3.10;99.90;;;;;;5036663;28;20060;-69
2022/01/07 03:11:45;;;;;;;14.77;8.05;;;3.10;99.90;;;;;;5042539;28;20060;-69
2022/01/07 03:14:11;;;;;;;12.77;7.45;;;3.10;99.90;;;;;;5069510;28;20059;-69
2022/01/07 03:16:39;;;;;;;14.15;8.25;;;3.50;99.90;;;;;;5063552;28;20442;-70
2022/01/07 03:19:06;;;;;;;15.65;8.75;;;3.10;99.90;;;;;;5071227;28;20516;-69
2022/01/07 03:21:31;;;;;;;14.43;8.23;;;3.10;99.90;;;;;;5071520;28;20036;-68
2022/01/07 03:23:57;;;;;;;15.10;8.43;;;3.20;99.90;;;;;;5053064;28;20166;-69
2022/01/07 03:26:23;;;;;;;12.30;7.10;;;3.20;99.90;;;;;;5070548;28;20125;-69
2022/01/07 03:28:49;;;;;;;11.75;7.97;;;3.10;99.90;;;;;;5053532;28;20202;-69
2022/01/07 03:31:14;;;;;;;13.50;8.00;;;3.10;99.90;;;;;;5052018;28;20052;-69
2022/01/07 03:33:40;;;;;;;13.02;8.18;;;4.40;99.90;;;;;;5071632;28;20457;-69
2022/01/07 03:36:06;;;;;;;15.82;8.52;;;3.10;99.90;;;;;;5053039;28;20054;-69
2022/01/07 03:38:32;;;;;;;14.90;8.20;;;3.10;99.90;;;;;;5071174;28;20048;-69
2022/01/07 03:40:57;;;;;;;14.00;8.23;;;3.10;99.90;;;;;;5069911;28;20162;-70
2022/01/07 03:43:23;;;;;;;14.95;9.07;;;3.20;99.90;;;;;;5071253;28;20056;-69
2022/01/07 03:45:49;;;;;;;13.80;8.10;;;3.20;99.90;;;;;;5070643;28;20049;-69
2022/01/07 03:48:14;;;;;;;14.75;8.43;;;3.20;99.90;;;;;;5070354;28;20090;-69
2022/01/07 03:50:40;;;;;;;17.05;8.38;;;3.20;99.90;;;;;;5052624;28;20059;-69
2022/01/07 03:53:06;;;;;;;13.93;7.95;;;3.20;99.90;;;;;;5052980;28;20048;-69
2022/01/07 03:55:33;;;;;;;16.50;9.43;;;3.20;99.90;;;;;;5039677;28;20052;-69
2022/01/07 03:57:59;;;;;;;13.52;7.82;;;3.30;99.90;;;;;;5072037;28;20045;-70
2022/01/07 04:00:34;;;;;;;12.55;8.32;;;3.30;99.90;;;;;;5066563;28;20459;-69
2022/01/07 04:03:07;;;;;;;14.93;9.50;;;3.30;99.90;;;;;;5069694;28;20634;-69
2022/01/07 04:05:33;;;;;;;14.65;9.85;;;3.20;99.90;;;;;;5057283;28;20084;-69
2022/01/07 04:07:59;;;;;;;15.30;8.32;;;3.20;99.90;;;;;;5047851;28;20124;-69
2022/01/07 04:10:25;;;;;;;11.25;7.35;;;3.20;99.90;;;;;;5070263;28;20546;-69
2022/01/07 04:12:51;;;;;;;15.95;9.13;;;3.30;99.90;;;;;;5052210;28;20044;-69
2022/01/07 04:15:18;;;;;;;15.15;8.43;;;3.30;99.90;;;;;;5035585;28;20060;-69
2022/01/07 04:17:47;;;;;;;15.05;9.52;;;3.30;99.90;;;;;;5052273;28;20052;-69
2022/01/07 04:20:15;;;;;;;12.35;8.93;;;3.30;99.90;;;;;;5051943;28;20119;-69
2022/01/07 04:22:42;;;;;;;14.25;8.70;;;4.70;99.90;;;;;;5070031;28;20323;-69
2022/01/07 04:25:12;;;;;;;13.55;9.05;;;3.20;99.90;;;;;;5050256;28;20068;-69
2022/01/07 04:27:39;;;;;;;15.10;8.48;;;3.20;99.90;;;;;;5044798;28;20520;-69
2022/01/07 04:30:05;;;;;;;12.55;8.50;;;3.20;99.90;;;;;;5070214;28;20044;-69
2022/01/07 04:32:30;;;;;;;12.63;8.95;;;3.30;99.90;;;;;;5068220;28;20516;-69
2022/01/07 04:34:56;;;;;;;12.32;9.30;;;3.30;99.90;;;;;;5072282;28;20128;-69
2022/01/07 04:37:22;;;;;;;13.23;9.07;;;5.10;99.90;;;;;;5052239;28;20118;-69
2022/01/07 04:39:47;;;;;;;14.15;9.52;;;3.20;99.90;;;;;;5069751;28;20053;-69
2022/01/07 04:42:13;;;;;;;14.00;9.05;;;3.20;99.90;;;;;;5069037;28;20048;-69
2022/01/07 04:44:41;;;;;;;13.50;8.65;;;3.30;99.90;;;;;;5052420;28;20053;-69
2022/01/07 04:47:10;;;;;;;15.82;9.43;;;3.40;99.90;;;;;;5050997;28;20052;-69
2022/01/07 04:49:36;;;;;;;12.85;9.55;;;3.70;99.90;;;;;;5069422;28;20048;-69
2022/01/07 04:52:04;;;;;;;13.93;8.82;;;3.40;99.90;;;;;;5069521;28;20153;-69
2022/01/07 04:54:30;;;;;;;15.48;9.95;;;3.40;99.90;;;;;;5051785;28;20064;-67
2022/01/07 04:56:55;;;;;;;11.35;7.45;;;3.40;99.90;;;;;;5068059;28;20427;-68
2022/01/07 04:59:21;;;;;;;15.32;9.38;;;3.40;99.90;;;;;;5069976;28;20048;-69
2022/01/07 05:01:47;;;;;;;14.48;8.40;;;3.40;99.90;;;;;;5034701;28;20519;-68
2022/01/07 05:04:13;;;;;;;14.57;9.80;;;3.40;99.90;;;;;;5050585;28;20132;-68
2022/01/07 05:06:44;;;;;;;14.52;9.02;;;3.40;99.90;;;;;;5069777;28;20132;-68
2022/01/07 05:09:10;;;;;;;15.52;9.18;;;3.40;99.90;;;;;;5070137;28;20048;-69
2022/01/07 05:11:35;;;;;;;13.57;9.18;;;3.50;99.90;;;;;;5060307;28;20052;-69
2022/01/07 05:14:01;;;;;;;12.60;9.40;;;3.40;99.90;;;;;;5063356;28;20114;-68
2022/01/07 05:16:28;;;;;;;11.55;8.15;;;3.50;99.90;;;;;;5067844;28;20044;-69
2022/01/07 05:18:54;;;;;;;14.50;8.70;;;3.50;99.90;;;;;;5069122;28;20071;-68
2022/01/07 05:21:20;;;;;;;14.38;9.88;;;3.50;99.90;;;;;;5050689;28;20393;-68
2022/01/07 05:23:46;;;;;;;12.32;7.53;;;3.60;99.90;;;;;;5051138;28;20056;-68
2022/01/07 05:26:11;;;;;;;13.98;9.48;;;3.60;99.90;;;;;;5067585;28;20753;-69
2022/01/07 05:28:37;;;;;;;12.73;8.68;;;3.60;99.90;;;;;;5069122;28;20470;-68
2022/01/07 05:31:04;;;;;;;12.70;8.70;;;3.60;99.90;;;;;;5067107;28;20097;-68
2022/01/07 05:33:30;;;;;;;13.20;9.60;;;3.60;99.90;;;;;;5068430;28;20116;-68
2022/01/07 05:35:55;;;;;;;12.93;8.70;;;3.60;99.90;;;;;;5068988;28;20139;-68
2022/01/07 05:38:21;;;;;;;13.80;8.65;;;3.70;99.90;;;;;;5069144;28;20048;-68
2022/01/07 05:40:46;;;;;;;15.27;9.18;;;3.70;99.90;;;;;;5050464;28;20059;-68
2022/01/07 05:43:12;;;;;;;13.25;8.88;;;3.70;99.90;;;;;;5033972;28;20052;-69
2022/01/07 05:45:38;;;;;;;15.20;8.70;;;3.70;99.90;;;;;;5068344;28;20147;-68
2022/01/07 05:48:04;;;;;;;13.57;9.25;;;4.90;99.90;;;;;;5068357;28;20346;-68
2022/01/07 05:50:30;;;;;;;13.45;8.32;;;3.70;99.90;;;;;;5053404;28;20060;-69
2022/01/07 05:52:55;;;;;;;13.10;8.15;;;3.80;99.90;;;;;;5069255;28;20048;-68
2022/01/07 05:55:21;;;;;;;12.38;8.50;;;3.70;99.90;;;;;;5050174;28;20040;-69
2022/01/07 05:57:47;;;;;;;13.77;8.48;;;3.70;99.90;;;;;;5050726;28;20146;-68
2022/01/07 06:00:12;;;;;;;12.55;8.13;;;3.80;99.90;;;;;;5067676;28;20041;-68
2022/01/07 06:02:39;;;;;;;12.23;8.88;;;3.80;99.90;;;;;;5067347;28;20044;-68
2022/01/07 06:05:06;;;;;;;14.00;8.57;;;3.80;99.90;;;;;;5068131;28;20068;-68
2022/01/07 06:07:31;;;;;;;15.27;9.23;;;3.80;99.90;;;;;;5068623;28;20076;-68
2022/01/07 06:09:57;;;;;;;15.85;9.73;;;3.80;99.90;;;;;;5070471;28;20500;-69
2022/01/07 06:12:23;;;;;;;11.32;8.20;;;3.80;99.90;;;;;;5069183;28;20055;-68
2022/01/07 06:14:48;;;;;;;11.82;8.15;;;4.20;99.90;;;;;;5068310;28;20482;-69
2022/01/07 06:17:14;;;;;;;13.82;9.23;;;3.80;99.90;;;;;;5066969;28;20052;-69
2022/01/07 06:19:39;;;;;;;15.00;8.88;;;3.80;99.90;;;;;;5067539;28;20048;-69
2022/01/07 06:22:05;;;;;;;11.32;7.93;;;3.80;99.90;;;;;;5048755;28;20071;-69
2022/01/07 06:24:31;;;;;;;14.95;8.90;;;3.80;99.90;;;;;;5049595;28;20040;-69
2022/01/07 06:26:56;;;;;;;13.07;10.02;;;3.80;99.90;;;;;;5067588;28;20487;-68
2022/01/07 06:29:22;;;;;;;14.20;9.40;;;3.80;99.90;;;;;;5068197;28;20044;-69
2022/01/07 06:31:48;;;;;;;13.38;8.10;;;3.80;99.90;;;;;;5049468;28;20060;-68
2022/01/07 06:34:14;;;;;;;12.82;8.77;;;3.80;99.90;;;;;;5067317;28;20166;-69
2022/01/07 06:36:39;;;;;;;13.68;8.80;;;3.80;99.90;;;;;;5069465;28;20037;-69
2022/01/07 06:39:05;;;;;;;14.00;9.55;;;3.80;99.90;;;;;;5063405;28;20164;-69
2022/01/07 06:41:31;;;;;;;11.82;7.85;;;3.80;99.90;;;;;;5064737;28;20554;-68
2022/01/07 06:43:57;;;;;;;12.73;8.45;;;3.90;99.90;;;;;;5068386;28;20383;-68
2022/01/07 06:46:23;;;;;;;13.80;8.05;;;3.90;99.90;;;;;;5067270;28;20094;-68
2022/01/07 06:48:48;;;;;;;13.10;8.90;;;3.90;99.90;;;;;;5067198;28;20040;-68
2022/01/07 06:51:14;;;;;;;12.25;8.63;;;3.90;99.90;;;;;;5041253;28;20452;-69
2022/01/07 06:53:40;;;;;;;13.75;8.77;;;3.80;99.90;;;;;;5027010;28;20485;-69
2022/01/07 06:56:06;;;;;;;12.73;8.27;;;3.80;99.90;;;;;;5048692;28;20095;-69
2022/01/07 06:58:31;;;;;;;11.35;8.40;;;3.90;99.90;;;;;;5049104;28;20048;-68
2022/01/07 07:00:57;;;;;;;11.18;8.77;;;3.90;99.90;;;;;;5052294;28;20052;-68
2022/01/07 07:03:23;;;;;;;13.45;9.07;;;3.90;99.90;;;;;;5057568;28;20053;-68
2022/01/07 07:05:49;;;;;;;15.18;8.93;;;3.90;99.90;;;;;;5049589;28;20477;-69
2022/01/07 07:08:14;;;;;;;12.40;8.07;;;3.90;99.90;;;;;;5022299;28;20056;-68
2022/01/07 07:10:40;;;;;;;14.85;9.80;;;3.90;99.90;;;;;;5062582;28;20124;-66
2022/01/07 07:13:06;;;;;;;15.07;9.43;;;3.90;99.90;;;;;;5048100;28;20052;-66
2022/01/07 07:15:32;;;;;;;11.45;8.38;;;3.90;99.90;;;;;;5045855;28;20556;-66
2022/01/07 07:17:57;;;;;;;12.95;8.65;;;5.20;99.90;;;;;;5042669;28;20087;-66
2022/01/07 07:20:23;;;;;;;14.55;9.73;;;4.00;99.90;;;;;;5047271;28;20109;-66
2022/01/07 07:22:49;;;;;;;12.90;9.48;;;4.00;99.90;;;;;;5051607;28;20494;-65
2022/01/07 07:25:14;;;;;;;13.13;9.05;;;4.00;99.90;;;;;;5069154;28;20129;-67
2022/01/07 07:27:41;;;;;;;12.43;8.60;;;4.00;99.90;;;;;;5066234;28;20410;-66
2022/01/07 07:30:09;;;;;;;15.38;9.27;;;4.00;99.90;;;;;;5065994;28;20061;-66
2022/01/07 07:32:36;;;;;;;14.85;10.20;;;4.10;99.90;;;;;;5048495;28;20045;-66
2022/01/07 07:36:26;;;;;;;15.48;11.00;;;4.10;99.90;;;;;;5050112;28;20049;-67
2022/01/07 07:37:49;;;;;;;14.80;10.55;;;4.10;99.90;;;;;;5046210;28;20048;-66
2022/01/07 07:40:16;;;;;;;14.48;10.57;;;4.00;99.90;;;;;;5033282;28;20083;-66
2022/01/07 07:42:42;;;;;;;18.23;12.80;;;4.10;99.90;;;;;;5057056;28;20063;-66
2022/01/07 07:45:08;;;;;;;21.05;11.73;;;4.00;99.90;;;;;;5048068;28;20100;-66
2022/01/07 07:47:35;;;;;;;18.27;11.05;;;4.10;99.90;;;;;;5047718;28;20055;-66
2022/01/07 07:50:02;;;;;;;17.40;11.00;;;4.10;99.90;;;;;;5037791;28;20099;-66
2022/01/07 07:52:27;;;;;;;17.00;10.95;;;4.20;99.90;;;;;;5070840;28;20115;-66
2022/01/07 07:54:53;;;;;;;17.15;11.35;;;4.20;99.90;;;;;;5069849;28;20128;-67
2022/01/07 07:57:20;;;;;;;17.73;11.40;;;4.20;99.90;;;;;;5052776;28;20043;-66
2022/01/07 07:59:45;;;;;;;21.05;12.80;;;4.30;99.90;;;;;;5070260;28;20113;-68
2022/01/07 08:02:11;;;;;;;16.48;11.68;;;4.50;99.90;;;;;;5034671;28;20048;-68
2022/01/07 08:04:41;;;;;;;17.85;11.93;;;4.30;99.90;;;;;;5070840;28;20056;-66
2022/01/07 08:07:06;;;;;;;17.02;11.38;;;4.30;99.90;;;;;;5070392;28;20049;-66
2022/01/07 08:09:38;;;;;;;17.73;11.85;;;4.40;99.90;;;;;;5054501;28;20504;-66
2022/01/07 08:12:17;;;;;;;22.67;13.20;;;4.40;99.90;;;;;;5060518;28;20088;-66
2022/01/07 08:17:27;;;;;;;22.08;13.57;;;4.40;99.90;;;;;;5049286;28;20540;-66
2022/01/07 08:19:52;;;;;;;26.05;13.60;;;4.50;99.90;;;;;;5037000;28;20051;-66
2022/01/07 08:22:18;;;;;;;25.02;15.00;;;4.60;99.90;;;;;;5070697;28;20452;-66
2022/01/07 08:24:44;;;;;;;21.35;12.55;;;6.00;99.90;;;;;;5071415;28;20079;-66
2022/01/07 08:27:09;;;;;;;21.63;14.02;;;4.50;99.90;;;;;;5052016;28;20051;-66
2022/01/07 08:29:38;;;;;;;20.85;12.98;;;4.60;99.90;;;;;;5051972;28;20559;-67
2022/01/07 08:34:54;;;;;;;18.35;12.52;;;4.60;99.90;;;;;;5070288;28;20087;-66
2022/01/07 08:37:25;;;;;;;18.95;13.30;;;4.70;99.90;;;;;;5070128;28;20479;-67
2022/01/07 08:39:53;;;;;;;20.17;13.77;;;4.70;99.90;;;;;;5068403;28;20112;-66
2022/01/07 08:42:23;;;;;;;22.42;15.68;;;4.70;99.90;;;;;;5051614;28;20052;-67
2022/01/07 08:44:51;;;;;;;25.98;15.18;;;4.70;99.90;;;;;;5053949;28;20155;-66
2022/01/07 08:47:17;;;;;;;21.90;13.95;;;4.70;99.90;;;;;;5051510;28;20064;-66
2022/01/07 08:49:43;;;;;;;22.23;15.13;;;4.70;99.90;;;;;;5051132;28;20127;-66
2022/01/07 08:52:08;;;;;;;22.25;13.30;;;4.80;99.90;;;;;;5069360;28;20053;-67
2022/01/07 08:54:34;;;;;;;31.65;15.45;;;4.80;99.90;;;;;;5069887;28;20047;-67
2022/01/07 08:56:59;;;;;;;28.45;15.45;;;4.90;99.90;;;;;;5050789;28;20057;-67
2022/01/07 08:59:25;;;;;;;21.20;14.90;;;4.90;99.90;;;;;;5050317;28;20052;-67
2022/01/07 09:01:51;;;;;;;26.25;15.40;;;4.90;99.90;;;;;;5070208;28;20048;-67
2022/01/07 09:04:16;;;;;;;20.70;12.10;;;4.90;99.90;;;;;;5069504;28;20404;-66
2022/01/07 09:06:42;;;;;;;24.27;15.43;;;5.00;99.90;;;;;;5069164;28;20049;-67
2022/01/07 09:09:08;;;;;;;23.13;13.77;;;5.00;99.90;;;;;;5066816;28;20055;-67
2022/01/07 09:11:34;;;;;;;25.50;15.32;;;5.90;99.90;;;;;;5066418;28;20053;-67
2022/01/07 09:13:59;;;;;;;24.00;14.43;;;5.00;99.90;;;;;;5069633;28;20060;-67
2022/01/07 09:16:26;;;;;;;22.15;12.98;;;5.00;99.90;;;;;;5053415;28;20044;-66
2022/01/07 09:18:51;;;;;;;26.45;14.82;;;5.10;99.90;;;;;;5071617;28;20139;-67
2022/01/07 09:21:18;;;;;;;25.27;15.90;;;5.10;99.90;;;;;;5089503;28;20126;-66
2022/01/07 09:23:43;;;;;;;23.63;15.15;;;5.10;99.90;;;;;;5089376;28;20094;-67
2022/01/07 09:26:10;;;;;;;25.10;16.15;;;5.10;99.90;;;;;;5088399;28;20043;-66
2022/01/07 09:28:36;;;;;;;22.85;13.60;;;5.10;99.90;;;;;;5075737;28;20172;-67
2022/01/07 09:31:02;;;;;;;23.27;13.32;;;5.10;99.90;;;;;;5067443;28;20056;-66
2022/01/07 09:33:28;;;;;;;29.45;16.20;;;5.20;99.90;;;;;;5068751;28;20123;-67
2022/01/07 09:35:53;;;;;;;23.83;14.60;;;5.20;99.90;;;;;;5049400;28;20055;-66
2022/01/07 09:38:21;;;;;;;22.25;14.18;;;5.30;99.90;;;;;;5068051;28;20052;-66
2022/01/07 09:40:47;;;;;;;28.33;15.23;;;5.30;99.90;;;;;;5060759;28;20052;-67
2022/01/07 09:43:14;;;;;;;26.65;15.90;;;5.30;99.90;;;;;;5068310;28;20577;-66
2022/01/07 09:45:39;;;;;;;21.70;14.73;;;6.20;99.90;;;;;;5069836;28;20063;-66
2022/01/07 09:48:08;;;;;;;25.73;15.07;;;5.30;99.90;;;;;;5066852;28;20107;-65
2022/01/07 09:50:34;;;;;;;25.48;15.13;;;6.60;99.90;;;;;;5049418;28;20052;-66
2022/01/07 09:53:08;;;;;;;21.10;12.93;;;5.90;99.90;;;;;;5064938;28;20048;-66
2022/01/07 09:55:34;;;;;;;23.65;14.10;;;6.20;99.90;;;;;;5068990;28;20124;-67
2022/01/07 09:58:02;;;;;;;23.52;12.45;;;6.20;99.90;;;;;;5067790;28;20047;-66
2022/01/07 10:00:42;;;;;;;22.85;13.48;;;6.10;99.90;;;;;;5067964;28;20049;-66
2022/01/07 10:03:16;;;;;;;21.65;11.80;;;6.00;99.90;;;;;;5067198;28;20105;-66
2022/01/07 10:05:51;;;;;;;17.60;11.25;;;6.00;99.90;;;;;;5068102;28;20056;-67
2022/01/07 10:08:28;;;;;;;16.40;10.20;;;5.90;99.90;;;;;;5050208;28;20084;-66
2022/01/07 10:11:19;;;;;;;20.80;11.88;;;5.80;99.90;;;;;;5067312;28;20056;-66
2022/01/07 10:13:50;;;;;;;19.77;10.75;;;5.80;99.90;;;;;;5067472;28;20052;-66
2022/01/07 10:16:17;;;;;;;14.30;10.00;;;5.70;99.90;;;;;;5060490;28;20124;-66
2022/01/07 10:18:43;;;;;;;17.23;9.68;;;5.70;99.90;;;;;;5031416;28;20049;-65
2022/01/07 10:21:12;;;;;;;14.50;6.32;;;5.70;99.90;;;;;;5029151;28;20057;-65
2022/01/07 10:23:38;;;;;;;8.57;4.47;;;5.90;99.90;;;;;;5029903;28;20381;-65
2022/01/07 10:26:15;;;;;;;7.30;2.92;;;5.80;99.90;;;;;;5063821;28;20400;-65
2022/01/07 10:28:41;;;;;;;7.18;2.80;;;5.80;99.90;;;;;;5041866;28;20477;-65
2022/01/07 10:31:08;;;;;;;6.85;2.60;;;5.80;99.90;;;;;;5048140;28;20052;-66
2022/01/07 10:33:39;;;;;;;5.00;2.70;;;6.10;99.90;;;;;;5048779;28;20132;-66
2022/01/07 10:36:08;;;;;;;5.68;3.03;;;5.80;99.90;;;;;;5029234;28;20128;-66
2022/01/07 10:38:51;;;;;;;5.63;3.70;;;5.90;99.90;;;;;;5048073;28;20401;-66
2022/01/07 10:41:17;;;;;;;5.00;3.42;;;6.00;99.90;;;;;;5045039;28;20052;-68
2022/01/07 10:43:43;;;;;;;8.40;3.63;;;6.60;99.90;;;;;;5063564;28;20545;-65
2022/01/07 10:46:08;;;;;;;5.03;2.90;;;7.20;99.90;;;;;;5028241;28;20357;-66
2022/01/07 10:48:41;;;;;;;6.03;2.97;;;7.80;99.90;;;;;;5048996;28;20056;-68
2022/01/07 10:51:12;;;;;;;3.90;2.17;;;8.00;99.90;;;;;;5062569;28;20087;-67
2022/01/07 10:53:39;;;;;;;5.72;2.97;;;7.90;99.90;;;;;;5048819;28;20049;-67
2022/01/07 10:56:16;;;;;;;6.22;2.60;;;7.30;99.90;;;;;;5066272;28;20400;-67
2022/01/07 10:58:47;;;;;;;5.55;1.98;;;7.10;99.90;;;;;;5063001;28;20057;-67
2022/01/07 11:01:19;;;;;;;7.28;2.65;;;6.80;99.90;;;;;;5047839;28;20081;-66
2022/01/07 11:03:51;;;;;;;4.85;2.47;;;6.60;99.90;;;;;;5048157;28;20079;-67
2022/01/07 11:06:18;;;;;;;5.47;1.98;;;6.50;99.90;;;;;;5045941;28;20060;-66
2022/01/07 11:08:44;;;;;;;6.25;2.50;;;6.70;99.90;;;;;;5047471;28;20497;-67
2022/01/07 11:11:11;;;;;;;5.22;2.30;;;6.80;99.90;;;;;;5027687;28;20412;-67
2022/01/07 11:13:37;;;;;;;4.65;2.00;;;7.10;99.90;;;;;;5028878;28;20528;-66
2022/01/07 11:16:06;;;;;;;6.28;2.42;;;7.20;99.90;;;;;;5045361;28;20045;-66
2022/01/07 11:18:35;;;;;;;6.03;2.15;;;7.40;99.90;;;;;;5029303;28;20056;-66
2022/01/07 11:21:02;;;;;;;5.85;2.20;;;7.50;99.90;;;;;;5046676;28;20049;-66
2022/01/07 11:23:29;;;;;;;4.20;2.00;;;7.60;99.90;;;;;;5062161;28;20052;-67
2022/01/07 11:26:06;;;;;;;5.38;2.20;;;8.60;99.90;;;;;;5054720;28;20060;-67
2022/01/07 11:28:32;;;;;;;7.35;2.60;;;7.80;99.90;;;;;;5032779;28;20136;-67
2022/01/07 11:31:13;;;;;;;5.70;2.40;;;9.10;99.90;;;;;;5049321;28;20060;-66
2022/01/07 11:33:39;;;;;;;5.65;2.33;;;9.30;99.90;;;;;;5051101;28;20170;-65
2022/01/07 11:36:10;;;;;;;8.05;2.88;;;10.20;99.90;;;;;;5050286;28;20071;-67
2022/01/07 11:38:38;;;;;;;6.35;2.92;;;12.10;99.90;;;;;;5032594;28;20469;-67
2022/01/07 11:41:06;;;;;;;6.97;3.33;;;11.70;99.90;;;;;;5049503;28;20132;-67
2022/01/07 11:43:47;;;;;;;9.30;3.20;;;12.20;99.90;;;;;;5049753;28;20061;-67
2022/01/07 11:46:25;;;;;;;7.38;3.60;;;12.80;99.90;;;;;;5049876;28;20057;-67
2022/01/07 11:48:52;;;;;;;7.07;3.80;;;13.40;99.90;;;;;;5032978;28;20053;-68
2022/01/07 11:51:18;;;;;;;7.47;3.85;;;13.80;99.90;;;;;;5031347;28;20088;-68
2022/01/07 11:53:49;;;;;;;8.38;4.32;;;14.20;99.90;;;;;;5050642;28;20237;-67
2022/01/07 11:56:17;;;;;;;6.97;3.80;;;14.50;99.90;;;;;;5049668;28;20064;-68
2022/01/07 11:58:51;;;;;;;8.80;4.13;;;15.00;99.90;;;;;;5050424;28;20404;-67
2022/01/07 12:01:23;;;;;;;11.40;4.00;;;15.30;99.90;;;;;;5049253;28;20102;-68
2022/01/07 12:03:49;;;;;;;10.30;3.95;;;15.30;99.90;;;;;;5033311;28;20045;-67
2022/01/07 12:06:23;;;;;;;6.70;3.83;;;15.20;99.90;;;;;;5044045;28;20516;-67
2022/01/07 12:09:09;;;;;;;9.05;4.07;;;15.40;99.90;;;;;;5069795;28;20056;-68
2022/01/07 12:11:42;;;;;;;8.00;4.25;;;15.50;99.90;;;;;;5050834;28;20048;-68
2022/01/07 12:14:11;;;;;;;10.18;3.92;;;15.40;99.90;;;;;;5070088;28;20053;-67
2022/01/07 12:16:38;;;;;;;10.45;4.40;;;14.70;99.90;;;;;;5068654;28;20490;-67
2022/01/07 12:19:18;;;;;;;10.52;4.90;;;13.70;99.90;;;;;;5069205;28;20052;-67
2022/01/07 12:22:11;;;;;;;10.68;4.35;;;12.20;99.90;;;;;;5072997;28;20056;-66
2022/01/07 12:24:37;;;;;;;10.60;5.15;;;11.00;99.90;;;;;;5033761;28;20095;-67
2022/01/07 12:27:10;;;;;;;13.73;5.50;;;10.60;99.90;;;;;;5069283;28;20114;-66
2022/01/07 12:29:40;;;;;;;10.95;5.53;;;10.00;99.90;;;;;;5074048;28;20055;-66
2022/01/07 12:32:09;;;;;;;12.73;5.45;;;10.90;99.90;;;;;;5052073;28;20146;-66
2022/01/07 12:34:40;;;;;;;11.60;5.43;;;12.00;99.90;;;;;;5068884;28;20063;-67
2022/01/07 12:37:08;;;;;;;10.23;5.10;;;13.40;99.90;;;;;;5052296;28;20118;-65
2022/01/07 12:39:39;;;;;;;12.52;4.80;;;14.80;99.90;;;;;;5060816;28;20122;-65
2022/01/07 12:42:06;;;;;;;10.23;4.35;;;15.70;99.90;;;;;;5048967;28;20121;-66
2022/01/07 12:44:36;;;;;;;9.27;4.00;;;15.90;99.90;;;;;;5031922;28;20140;-66
2022/01/07 12:47:03;;;;;;;9.38;3.70;;;15.90;99.70;;;;;;5048409;28;20054;-65
2022/01/07 12:49:44;;;;;;;8.68;3.75;;;16.10;99.30;;;;;;5050296;28;20049;-65
2022/01/07 12:52:43;;;;;;;7.22;3.45;;;16.40;98.80;;;;;;5015063;28;20144;-65